sensor_id;sensor_type;location;lat;lon;timestamp;P1;durP1;ratioP1;P2;durP2;ratioP2
30605;SDS011;17371;51.328;3.860;2022-11-23T00:00:24;16.00;;;4.32;;
30605;SDS011;17371;51.328;3.860;2022-11-23T00:02:51;20.03;;;4.47;;
30605;SDS011;17371;51.328;3.860;2022-11-23T00:05:18;15.93;;;4.43;;
30605;SDS011;17371;51.328;3.860;2022-11-23T00:07:44;16.17;;;4.43;;
30605;SDS011;17371;51.328;3.860;2022-11-23T00:10:09;13.93;;;4.50;;
30605;SDS011;17371;51.328;3.860;2022-11-23T00:12:34;12.10;;;4.23;;
30605;SDS011;17371;51.328;3.860;2022-11-23T00:15:00;16.33;;;4.33;;
30605;SDS011;17371;51.328;3.860;2022-11-23T00:17:25;15.43;;;4.77;;
30605;SDS011;17371;51.328;3.860;2022-11-23T00:19:51;14.73;;;4.50;;
30605;SDS011;17371;51.328;3.860;2022-11-23T00:22:17;10.30;;;4.07;;
30605;SDS011;17371;51.328;3.860;2022-11-23T00:24:43;17.53;;;4.13;;
30605;SDS011;17371;51.328;3.860;2022-11-23T00:27:08;16.02;;;4.85;;
30605;SDS011;17371;51.328;3.860;2022-11-23T00:29:33;13.00;;;4.70;;
30605;SDS011;17371;51.328;3.860;2022-11-23T00:31:59;9.97;;;4.70;;
30605;SDS011;17371;51.328;3.860;2022-11-23T00:34:24;14.27;;;5.13;;
30605;SDS011;17371;51.328;3.860;2022-11-23T00:36:50;16.90;;;5.50;;
30605;SDS011;17371;51.328;3.860;2022-11-23T00:39:17;13.65;;;4.75;;
30605;SDS011;17371;51.328;3.860;2022-11-23T00:41:42;10.77;;;4.53;;
30605;SDS011;17371;51.328;3.860;2022-11-23T00:44:07;12.88;;;5.20;;
30605;SDS011;17371;51.328;3.860;2022-11-23T00:46:33;12.40;;;5.35;;
30605;SDS011;17371;51.328;3.860;2022-11-23T00:48:58;11.57;;;4.90;;
30605;SDS011;17371;51.328;3.860;2022-11-23T00:51:24;12.53;;;5.03;;
30605;SDS011;17371;51.328;3.860;2022-11-23T00:53:51;10.43;;;4.70;;
30605;SDS011;17371;51.328;3.860;2022-11-23T00:56:18;11.93;;;5.10;;
30605;SDS011;17371;51.328;3.860;2022-11-23T00:58:46;16.42;;;4.72;;
30605;SDS011;17371;51.328;3.860;2022-11-23T01:01:13;11.55;;;4.78;;
30605;SDS011;17371;51.328;3.860;2022-11-23T01:03:40;8.77;;;4.28;;
30605;SDS011;17371;51.328;3.860;2022-11-23T01:06:08;7.75;;;5.00;;
30605;SDS011;17371;51.328;3.860;2022-11-23T01:08:36;10.33;;;4.60;;
30605;SDS011;17371;51.328;3.860;2022-11-23T01:11:03;15.88;;;4.97;;
30605;SDS011;17371;51.328;3.860;2022-11-23T01:13:31;11.45;;;5.63;;
30605;SDS011;17371;51.328;3.860;2022-11-23T01:15:56;13.85;;;5.30;;
30605;SDS011;17371;51.328;3.860;2022-11-23T01:18:22;14.63;;;5.30;;
30605;SDS011;17371;51.328;3.860;2022-11-23T01:20:47;14.73;;;6.18;;
30605;SDS011;17371;51.328;3.860;2022-11-23T01:23:13;14.93;;;5.57;;
30605;SDS011;17371;51.328;3.860;2022-11-23T01:25:38;20.33;;;5.70;;
30605;SDS011;17371;51.328;3.860;2022-11-23T01:28:03;14.57;;;5.80;;
30605;SDS011;17371;51.328;3.860;2022-11-23T01:30:30;13.87;;;5.57;;
30605;SDS011;17371;51.328;3.860;2022-11-23T01:32:56;9.65;;;5.38;;
30605;SDS011;17371;51.328;3.860;2022-11-23T01:35:21;15.10;;;6.30;;
30605;SDS011;17371;51.328;3.860;2022-11-23T01:37:46;12.63;;;6.27;;
30605;SDS011;17371;51.328;3.860;2022-11-23T01:40:12;15.35;;;5.57;;
30605;SDS011;17371;51.328;3.860;2022-11-23T01:42:46;15.07;;;5.30;;
30605;SDS011;17371;51.328;3.860;2022-11-23T01:45:35;14.90;;;5.60;;
30605;SDS011;17371;51.328;3.860;2022-11-23T01:48:03;15.18;;;5.40;;
30605;SDS011;17371;51.328;3.860;2022-11-23T01:50:31;15.75;;;5.32;;
30605;SDS011;17371;51.328;3.860;2022-11-23T01:52:56;13.87;;;5.20;;
30605;SDS011;17371;51.328;3.860;2022-11-23T01:55:22;13.55;;;5.00;;
30605;SDS011;17371;51.328;3.860;2022-11-23T01:57:48;15.67;;;4.90;;
30605;SDS011;17371;51.328;3.860;2022-11-23T02:00:14;14.88;;;5.13;;
30605;SDS011;17371;51.328;3.860;2022-11-23T02:02:42;13.60;;;4.50;;
30605;SDS011;17371;51.328;3.860;2022-11-23T02:05:10;15.35;;;5.00;;
30605;SDS011;17371;51.328;3.860;2022-11-23T02:07:36;15.73;;;6.18;;
30605;SDS011;17371;51.328;3.860;2022-11-23T02:10:02;18.60;;;4.75;;
30605;SDS011;17371;51.328;3.860;2022-11-23T02:12:28;13.80;;;4.77;;
30605;SDS011;17371;51.328;3.860;2022-11-23T02:14:53;16.27;;;5.00;;
30605;SDS011;17371;51.328;3.860;2022-11-23T02:17:18;14.52;;;4.63;;
30605;SDS011;17371;51.328;3.860;2022-11-23T02:19:47;20.08;;;5.97;;
30605;SDS011;17371;51.328;3.860;2022-11-23T02:22:19;14.48;;;5.72;;
30605;SDS011;17371;51.328;3.860;2022-11-23T02:24:48;15.10;;;5.50;;
30605;SDS011;17371;51.328;3.860;2022-11-23T02:27:18;15.90;;;5.55;;
30605;SDS011;17371;51.328;3.860;2022-11-23T02:29:44;17.45;;;5.57;;
30605;SDS011;17371;51.328;3.860;2022-11-23T02:32:09;18.92;;;5.40;;
30605;SDS011;17371;51.328;3.860;2022-11-23T02:34:35;16.50;;;4.20;;
30605;SDS011;17371;51.328;3.860;2022-11-23T02:37:00;11.60;;;3.80;;
30605;SDS011;17371;51.328;3.860;2022-11-23T02:39:28;12.43;;;3.50;;
30605;SDS011;17371;51.328;3.860;2022-11-23T02:41:56;14.20;;;4.28;;
30605;SDS011;17371;51.328;3.860;2022-11-23T02:44:28;13.68;;;4.13;;
30605;SDS011;17371;51.328;3.860;2022-11-23T02:46:57;13.82;;;4.22;;
30605;SDS011;17371;51.328;3.860;2022-11-23T02:49:23;14.30;;;4.28;;
30605;SDS011;17371;51.328;3.860;2022-11-23T02:51:48;11.80;;;3.47;;
30605;SDS011;17371;51.328;3.860;2022-11-23T02:54:14;10.83;;;4.00;;
30605;SDS011;17371;51.328;3.860;2022-11-23T02:56:39;10.57;;;3.77;;
30605;SDS011;17371;51.328;3.860;2022-11-23T02:59:04;13.98;;;3.78;;
30605;SDS011;17371;51.328;3.860;2022-11-23T03:01:31;11.05;;;3.80;;
30605;SDS011;17371;51.328;3.860;2022-11-23T03:03:57;15.20;;;3.77;;
30605;SDS011;17371;51.328;3.860;2022-11-23T03:06:22;11.38;;;3.67;;
30605;SDS011;17371;51.328;3.860;2022-11-23T03:08:48;15.13;;;3.65;;
30605;SDS011;17371;51.328;3.860;2022-11-23T03:11:13;14.57;;;3.97;;
30605;SDS011;17371;51.328;3.860;2022-11-23T03:13:38;11.43;;;3.60;;
30605;SDS011;17371;51.328;3.860;2022-11-23T03:16:04;12.27;;;4.67;;
30605;SDS011;17371;51.328;3.860;2022-11-23T03:18:31;14.57;;;2.90;;
30605;SDS011;17371;51.328;3.860;2022-11-23T03:21:00;19.13;;;3.78;;
30605;SDS011;17371;51.328;3.860;2022-11-23T03:23:26;16.33;;;3.27;;
30605;SDS011;17371;51.328;3.860;2022-11-23T03:25:53;17.08;;;3.67;;
30605;SDS011;17371;51.328;3.860;2022-11-23T03:28:19;10.25;;;3.38;;
30605;SDS011;17371;51.328;3.860;2022-11-23T03:30:44;13.13;;;3.50;;
30605;SDS011;17371;51.328;3.860;2022-11-23T03:33:10;19.70;;;4.22;;
30605;SDS011;17371;51.328;3.860;2022-11-23T03:35:36;14.57;;;3.50;;
30605;SDS011;17371;51.328;3.860;2022-11-23T03:38:02;13.07;;;3.83;;
30605;SDS011;17371;51.328;3.860;2022-11-23T03:40:27;12.68;;;2.83;;
30605;SDS011;17371;51.328;3.860;2022-11-23T03:42:53;13.80;;;2.60;;
30605;SDS011;17371;51.328;3.860;2022-11-23T03:45:18;15.80;;;3.43;;
30605;SDS011;17371;51.328;3.860;2022-11-23T03:47:43;16.30;;;2.83;;
30605;SDS011;17371;51.328;3.860;2022-11-23T03:50:09;15.43;;;2.83;;
30605;SDS011;17371;51.328;3.860;2022-11-23T03:52:35;14.17;;;3.00;;
30605;SDS011;17371;51.328;3.860;2022-11-23T03:55:01;21.25;;;2.95;;
30605;SDS011;17371;51.328;3.860;2022-11-23T03:57:26;19.50;;;3.33;;
30605;SDS011;17371;51.328;3.860;2022-11-23T03:59:52;15.65;;;2.35;;
30605;SDS011;17371;51.328;3.860;2022-11-23T04:02:17;15.43;;;2.50;;
30605;SDS011;17371;51.328;3.860;2022-11-23T04:04:42;12.93;;;2.70;;
30605;SDS011;17371;51.328;3.860;2022-11-23T04:07:08;11.47;;;2.63;;
30605;SDS011;17371;51.328;3.860;2022-11-23T04:09:34;15.80;;;3.03;;
30605;SDS011;17371;51.328;3.860;2022-11-23T04:12:00;14.85;;;2.35;;
30605;SDS011;17371;51.328;3.860;2022-11-23T04:14:25;17.10;;;2.87;;
30605;SDS011;17371;51.328;3.860;2022-11-23T04:16:51;15.93;;;3.17;;
30605;SDS011;17371;51.328;3.860;2022-11-23T04:19:16;16.83;;;3.13;;
30605;SDS011;17371;51.328;3.860;2022-11-23T04:21:41;18.20;;;2.90;;
30605;SDS011;17371;51.328;3.860;2022-11-23T04:24:07;16.13;;;2.83;;
30605;SDS011;17371;51.328;3.860;2022-11-23T04:26:34;14.25;;;3.00;;
30605;SDS011;17371;51.328;3.860;2022-11-23T04:28:59;10.18;;;2.15;;
30605;SDS011;17371;51.328;3.860;2022-11-23T04:31:24;18.20;;;3.20;;
30605;SDS011;17371;51.328;3.860;2022-11-23T04:33:50;12.90;;;2.80;;
30605;SDS011;17371;51.328;3.860;2022-11-23T04:36:15;12.60;;;2.63;;
30605;SDS011;17371;51.328;3.860;2022-11-23T04:38:41;14.57;;;2.50;;
30605;SDS011;17371;51.328;3.860;2022-11-23T04:41:06;14.77;;;2.50;;
30605;SDS011;17371;51.328;3.860;2022-11-23T04:43:33;12.55;;;2.53;;
30605;SDS011;17371;51.328;3.860;2022-11-23T04:45:58;12.00;;;2.00;;
30605;SDS011;17371;51.328;3.860;2022-11-23T04:48:23;12.63;;;2.42;;
30605;SDS011;17371;51.328;3.860;2022-11-23T04:50:49;17.87;;;2.30;;
30605;SDS011;17371;51.328;3.860;2022-11-23T04:53:14;13.60;;;2.60;;
30605;SDS011;17371;51.328;3.860;2022-11-23T04:55:40;17.80;;;2.90;;
30605;SDS011;17371;51.328;3.860;2022-11-23T04:58:05;21.80;;;3.70;;
30605;SDS011;17371;51.328;3.860;2022-11-23T05:00:32;16.40;;;3.40;;
30605;SDS011;17371;51.328;3.860;2022-11-23T05:02:58;14.75;;;3.80;;
30605;SDS011;17371;51.328;3.860;2022-11-23T05:05:23;26.30;;;5.45;;
30605;SDS011;17371;51.328;3.860;2022-11-23T05:07:49;19.27;;;4.83;;
30605;SDS011;17371;51.328;3.860;2022-11-23T05:10:14;21.57;;;5.73;;
30605;SDS011;17371;51.328;3.860;2022-11-23T05:12:40;28.48;;;7.10;;
30605;SDS011;17371;51.328;3.860;2022-11-23T05:15:05;28.83;;;7.15;;
30605;SDS011;17371;51.328;3.860;2022-11-23T05:17:33;36.77;;;8.13;;
30605;SDS011;17371;51.328;3.860;2022-11-23T05:19:58;32.15;;;8.63;;
30605;SDS011;17371;51.328;3.860;2022-11-23T05:22:23;31.57;;;8.00;;
30605;SDS011;17371;51.328;3.860;2022-11-23T05:24:49;31.08;;;8.27;;
30605;SDS011;17371;51.328;3.860;2022-11-23T05:27:14;33.83;;;7.63;;
30605;SDS011;17371;51.328;3.860;2022-11-23T05:29:40;31.53;;;8.43;;
30605;SDS011;17371;51.328;3.860;2022-11-23T05:32:05;50.20;;;11.63;;
30605;SDS011;17371;51.328;3.860;2022-11-23T05:34:32;42.30;;;12.47;;
30605;SDS011;17371;51.328;3.860;2022-11-23T05:36:57;52.65;;;11.50;;
30605;SDS011;17371;51.328;3.860;2022-11-23T05:39:23;38.60;;;10.87;;
30605;SDS011;17371;51.328;3.860;2022-11-23T05:41:48;42.40;;;11.80;;
30605;SDS011;17371;51.328;3.860;2022-11-23T05:44:13;44.85;;;12.18;;
30605;SDS011;17371;51.328;3.860;2022-11-23T05:46:39;37.90;;;10.88;;
30605;SDS011;17371;51.328;3.860;2022-11-23T05:49:04;38.17;;;9.10;;
30605;SDS011;17371;51.328;3.860;2022-11-23T05:51:31;40.23;;;10.00;;
30605;SDS011;17371;51.328;3.860;2022-11-23T05:53:56;23.73;;;6.53;;
30605;SDS011;17371;51.328;3.860;2022-11-23T05:56:22;22.50;;;5.20;;
30605;SDS011;17371;51.328;3.860;2022-11-23T05:58:47;21.13;;;4.50;;
30605;SDS011;17371;51.328;3.860;2022-11-23T06:01:12;13.40;;;3.63;;
30605;SDS011;17371;51.328;3.860;2022-11-23T06:03:38;16.97;;;3.60;;
30605;SDS011;17371;51.328;3.860;2022-11-23T06:06:05;15.85;;;3.70;;
30605;SDS011;17371;51.328;3.860;2022-11-23T06:08:32;15.35;;;3.70;;
30605;SDS011;17371;51.328;3.860;2022-11-23T06:10:59;16.40;;;3.47;;
30605;SDS011;17371;51.328;3.860;2022-11-23T06:13:24;19.57;;;4.50;;
30605;SDS011;17371;51.328;3.860;2022-11-23T06:15:50;17.80;;;3.65;;
30605;SDS011;17371;51.328;3.860;2022-11-23T06:18:15;13.27;;;3.20;;
30605;SDS011;17371;51.328;3.860;2022-11-23T06:20:40;18.87;;;3.17;;
30605;SDS011;17371;51.328;3.860;2022-11-23T06:23:06;15.83;;;3.40;;
30605;SDS011;17371;51.328;3.860;2022-11-23T06:25:32;18.03;;;2.70;;
30605;SDS011;17371;51.328;3.860;2022-11-23T06:27:58;12.02;;;2.65;;
30605;SDS011;17371;51.328;3.860;2022-11-23T06:30:25;17.20;;;3.03;;
30605;SDS011;17371;51.328;3.860;2022-11-23T06:32:51;15.67;;;2.90;;
30605;SDS011;17371;51.328;3.860;2022-11-23T06:35:16;23.98;;;3.70;;
30605;SDS011;17371;51.328;3.860;2022-11-23T06:37:42;16.77;;;2.80;;
30605;SDS011;17371;51.328;3.860;2022-11-23T06:40:08;13.57;;;3.20;;
30605;SDS011;17371;51.328;3.860;2022-11-23T06:42:35;16.38;;;3.72;;
30605;SDS011;17371;51.328;3.860;2022-11-23T06:45:01;18.38;;;4.32;;
30605;SDS011;17371;51.328;3.860;2022-11-23T06:47:26;27.30;;;4.33;;
30605;SDS011;17371;51.328;3.860;2022-11-23T06:49:52;19.08;;;4.28;;
30605;SDS011;17371;51.328;3.860;2022-11-23T06:52:17;14.23;;;2.63;;
30605;SDS011;17371;51.328;3.860;2022-11-23T06:54:43;11.80;;;2.40;;
30605;SDS011;17371;51.328;3.860;2022-11-23T06:57:08;17.97;;;3.00;;
30605;SDS011;17371;51.328;3.860;2022-11-23T06:59:35;16.55;;;2.33;;
30605;SDS011;17371;51.328;3.860;2022-11-23T07:02:01;17.63;;;2.90;;
30605;SDS011;17371;51.328;3.860;2022-11-23T07:04:26;14.00;;;3.13;;
30605;SDS011;17371;51.328;3.860;2022-11-23T07:06:52;13.57;;;3.20;;
30605;SDS011;17371;51.328;3.860;2022-11-23T07:09:17;17.27;;;3.23;;
30605;SDS011;17371;51.328;3.860;2022-11-23T07:11:43;15.00;;;3.30;;
30605;SDS011;17371;51.328;3.860;2022-11-23T07:14:08;17.67;;;3.67;;
30605;SDS011;17371;51.328;3.860;2022-11-23T07:16:35;17.73;;;4.97;;
30605;SDS011;17371;51.328;3.860;2022-11-23T07:19:00;14.80;;;4.70;;
30605;SDS011;17371;51.328;3.860;2022-11-23T07:21:26;19.80;;;4.93;;
30605;SDS011;17371;51.328;3.860;2022-11-23T07:23:51;18.10;;;4.03;;
30605;SDS011;17371;51.328;3.860;2022-11-23T07:26:17;20.92;;;4.22;;
30605;SDS011;17371;51.328;3.860;2022-11-23T07:28:42;16.05;;;3.97;;
30605;SDS011;17371;51.328;3.860;2022-11-23T07:31:08;16.27;;;3.70;;
30605;SDS011;17371;51.328;3.860;2022-11-23T07:33:35;13.83;;;3.63;;
30605;SDS011;17371;51.328;3.860;2022-11-23T07:36:01;20.52;;;4.25;;
30605;SDS011;17371;51.328;3.860;2022-11-23T07:38:27;19.98;;;4.32;;
30605;SDS011;17371;51.328;3.860;2022-11-23T07:40:52;23.47;;;4.63;;
30605;SDS011;17371;51.328;3.860;2022-11-23T07:43:18;37.87;;;9.77;;
30605;SDS011;17371;51.328;3.860;2022-11-23T07:45:43;33.47;;;8.87;;
30605;SDS011;17371;51.328;3.860;2022-11-23T07:48:09;30.53;;;8.90;;
30605;SDS011;17371;51.328;3.860;2022-11-23T07:50:36;25.63;;;6.38;;
30605;SDS011;17371;51.328;3.860;2022-11-23T07:53:03;19.67;;;4.30;;
30605;SDS011;17371;51.328;3.860;2022-11-23T07:55:29;17.65;;;3.55;;
30605;SDS011;17371;51.328;3.860;2022-11-23T07:57:55;19.20;;;3.22;;
30605;SDS011;17371;51.328;3.860;2022-11-23T08:00:21;19.67;;;3.53;;
30605;SDS011;17371;51.328;3.860;2022-11-23T08:02:46;15.05;;;3.35;;
30605;SDS011;17371;51.328;3.860;2022-11-23T08:05:12;17.13;;;3.10;;
30605;SDS011;17371;51.328;3.860;2022-11-23T08:07:39;12.27;;;3.03;;
30605;SDS011;17371;51.328;3.860;2022-11-23T08:10:04;11.02;;;2.97;;
30605;SDS011;17371;51.328;3.860;2022-11-23T08:12:30;18.10;;;3.00;;
30605;SDS011;17371;51.328;3.860;2022-11-23T08:14:55;18.70;;;3.50;;
30605;SDS011;17371;51.328;3.860;2022-11-23T08:17:21;14.30;;;2.90;;
30605;SDS011;17371;51.328;3.860;2022-11-23T08:19:46;16.27;;;3.80;;
30605;SDS011;17371;51.328;3.860;2022-11-23T08:22:11;14.10;;;3.30;;
30605;SDS011;17371;51.328;3.860;2022-11-23T08:24:39;17.23;;;3.53;;
30605;SDS011;17371;51.328;3.860;2022-11-23T08:27:04;17.35;;;3.90;;
30605;SDS011;17371;51.328;3.860;2022-11-23T08:29:30;12.10;;;3.30;;
30605;SDS011;17371;51.328;3.860;2022-11-23T08:31:55;19.67;;;4.00;;
30605;SDS011;17371;51.328;3.860;2022-11-23T08:34:21;17.27;;;4.10;;
30605;SDS011;17371;51.328;3.860;2022-11-23T08:36:46;19.37;;;4.77;;
30605;SDS011;17371;51.328;3.860;2022-11-23T08:39:11;20.08;;;4.57;;
30605;SDS011;17371;51.328;3.860;2022-11-23T08:41:38;17.07;;;4.10;;
30605;SDS011;17371;51.328;3.860;2022-11-23T08:44:04;18.50;;;4.78;;
30605;SDS011;17371;51.328;3.860;2022-11-23T08:46:29;18.07;;;4.33;;
30605;SDS011;17371;51.328;3.860;2022-11-23T08:48:55;21.73;;;4.73;;
30605;SDS011;17371;51.328;3.860;2022-11-23T08:51:20;14.07;;;4.03;;
30605;SDS011;17371;51.328;3.860;2022-11-23T08:53:46;16.10;;;3.80;;
30605;SDS011;17371;51.328;3.860;2022-11-23T08:56:11;12.37;;;3.50;;
30605;SDS011;17371;51.328;3.860;2022-11-23T08:58:38;16.50;;;4.10;;
30605;SDS011;17371;51.328;3.860;2022-11-23T09:01:06;19.65;;;4.50;;
30605;SDS011;17371;51.328;3.860;2022-11-23T09:03:32;12.93;;;3.28;;
30605;SDS011;17371;51.328;3.860;2022-11-23T09:05:58;13.37;;;3.60;;
30605;SDS011;17371;51.328;3.860;2022-11-23T09:08:23;17.05;;;4.00;;
30605;SDS011;17371;51.328;3.860;2022-11-23T09:10:49;15.03;;;3.53;;
30605;SDS011;17371;51.328;3.860;2022-11-23T09:13:14;17.13;;;3.60;;
30605;SDS011;17371;51.328;3.860;2022-11-23T09:15:41;16.50;;;3.70;;
30605;SDS011;17371;51.328;3.860;2022-11-23T09:18:06;17.55;;;4.07;;
30605;SDS011;17371;51.328;3.860;2022-11-23T09:20:32;10.17;;;3.00;;
30605;SDS011;17371;51.328;3.860;2022-11-23T09:22:57;16.97;;;4.40;;
30605;SDS011;17371;51.328;3.860;2022-11-23T09:25:22;14.20;;;3.97;;
30605;SDS011;17371;51.328;3.860;2022-11-23T09:27:48;16.40;;;3.08;;
30605;SDS011;17371;51.328;3.860;2022-11-23T09:30:14;15.47;;;3.40;;
30605;SDS011;17371;51.328;3.860;2022-11-23T09:32:42;12.93;;;2.97;;
30605;SDS011;17371;51.328;3.860;2022-11-23T09:35:07;12.38;;;3.35;;
30605;SDS011;17371;51.328;3.860;2022-11-23T09:37:33;14.35;;;3.60;;
30605;SDS011;17371;51.328;3.860;2022-11-23T09:39:58;15.73;;;3.70;;
30605;SDS011;17371;51.328;3.860;2022-11-23T09:42:29;10.83;;;3.30;;
30605;SDS011;17371;51.328;3.860;2022-11-23T09:45:07;11.75;;;3.47;;
30605;SDS011;17371;51.328;3.860;2022-11-23T09:47:44;14.65;;;3.63;;
30605;SDS011;17371;51.328;3.860;2022-11-23T09:50:16;10.97;;;3.30;;
30605;SDS011;17371;51.328;3.860;2022-11-23T09:52:46;18.88;;;2.25;;
30605;SDS011;17371;51.328;3.860;2022-11-23T09:55:12;12.20;;;3.45;;
30605;SDS011;17371;51.328;3.860;2022-11-23T09:57:40;10.05;;;2.53;;
30605;SDS011;17371;51.328;3.860;2022-11-23T10:00:07;13.35;;;3.13;;
30605;SDS011;17371;51.328;3.860;2022-11-23T10:02:42;10.17;;;2.70;;
30605;SDS011;17371;51.328;3.860;2022-11-23T10:05:09;10.43;;;3.03;;
30605;SDS011;17371;51.328;3.860;2022-11-23T10:07:43;10.23;;;2.90;;
30605;SDS011;17371;51.328;3.860;2022-11-23T10:10:19;15.57;;;3.20;;
30605;SDS011;17371;51.328;3.860;2022-11-23T10:12:53;17.25;;;3.22;;
30605;SDS011;17371;51.328;3.860;2022-11-23T10:15:25;8.30;;;2.33;;
30605;SDS011;17371;51.328;3.860;2022-11-23T10:17:57;11.45;;;3.35;;
30605;SDS011;17371;51.328;3.860;2022-11-23T10:20:36;9.95;;;2.97;;
30605;SDS011;17371;51.328;3.860;2022-11-23T10:23:10;10.77;;;3.60;;
30605;SDS011;17371;51.328;3.860;2022-11-23T10:25:39;12.35;;;3.03;;
30605;SDS011;17371;51.328;3.860;2022-11-23T10:28:10;8.33;;;3.00;;
30605;SDS011;17371;51.328;3.860;2022-11-23T10:30:37;7.47;;;2.53;;
30605;SDS011;17371;51.328;3.860;2022-11-23T10:33:07;12.73;;;3.28;;
30605;SDS011;17371;51.328;3.860;2022-11-23T10:35:37;6.47;;;2.83;;
30605;SDS011;17371;51.328;3.860;2022-11-23T10:38:09;11.02;;;2.60;;
30605;SDS011;17371;51.328;3.860;2022-11-23T10:40:36;9.70;;;2.85;;
30605;SDS011;17371;51.328;3.860;2022-11-23T10:43:04;13.50;;;3.10;;
30605;SDS011;17371;51.328;3.860;2022-11-23T10:45:34;9.57;;;2.88;;
30605;SDS011;17371;51.328;3.860;2022-11-23T10:47:59;9.50;;;2.30;;
30605;SDS011;17371;51.328;3.860;2022-11-23T10:50:27;10.47;;;2.70;;
30605;SDS011;17371;51.328;3.860;2022-11-23T10:52:54;10.50;;;2.80;;
30605;SDS011;17371;51.328;3.860;2022-11-23T10:55:23;11.25;;;3.22;;
30605;SDS011;17371;51.328;3.860;2022-11-23T10:57:50;11.27;;;2.30;;
30605;SDS011;17371;51.328;3.860;2022-11-23T11:00:18;10.38;;;2.58;;
30605;SDS011;17371;51.328;3.860;2022-11-23T11:02:45;13.77;;;2.80;;
30605;SDS011;17371;51.328;3.860;2022-11-23T11:05:24;6.90;;;2.05;;
30605;SDS011;17371;51.328;3.860;2022-11-23T11:07:56;12.55;;;2.88;;
30605;SDS011;17371;51.328;3.860;2022-11-23T11:10:30;5.32;;;2.42;;
30605;SDS011;17371;51.328;3.860;2022-11-23T11:12:57;8.43;;;2.80;;
30605;SDS011;17371;51.328;3.860;2022-11-23T11:15:23;10.27;;;2.50;;
30605;SDS011;17371;51.328;3.860;2022-11-23T11:17:53;8.00;;;2.27;;
30605;SDS011;17371;51.328;3.860;2022-11-23T11:20:23;10.07;;;2.63;;
30605;SDS011;17371;51.328;3.860;2022-11-23T11:22:58;8.43;;;2.40;;
30605;SDS011;17371;51.328;3.860;2022-11-23T11:25:28;11.93;;;2.55;;
30605;SDS011;17371;51.328;3.860;2022-11-23T11:27:55;9.43;;;2.60;;
30605;SDS011;17371;51.328;3.860;2022-11-23T11:30:21;8.50;;;3.28;;
30605;SDS011;17371;51.328;3.860;2022-11-23T11:32:48;10.00;;;2.78;;
30605;SDS011;17371;51.328;3.860;2022-11-23T11:35:19;9.23;;;2.67;;
30605;SDS011;17371;51.328;3.860;2022-11-23T11:37:50;11.25;;;2.60;;
30605;SDS011;17371;51.328;3.860;2022-11-23T11:40:18;14.93;;;2.80;;
30605;SDS011;17371;51.328;3.860;2022-11-23T11:42:46;7.72;;;2.20;;
30605;SDS011;17371;51.328;3.860;2022-11-23T11:45:15;11.93;;;2.80;;
30605;SDS011;17371;51.328;3.860;2022-11-23T11:47:44;8.57;;;2.30;;
30605;SDS011;17371;51.328;3.860;2022-11-23T11:50:14;8.50;;;2.53;;
30605;SDS011;17371;51.328;3.860;2022-11-23T11:52:44;6.13;;;2.20;;
30605;SDS011;17371;51.328;3.860;2022-11-23T11:55:13;7.50;;;2.60;;
30605;SDS011;17371;51.328;3.860;2022-11-23T11:57:43;5.43;;;2.20;;
30605;SDS011;17371;51.328;3.860;2022-11-23T12:00:12;10.43;;;2.80;;
30605;SDS011;17371;51.328;3.860;2022-11-23T12:02:41;8.98;;;2.42;;
30605;SDS011;17371;51.328;3.860;2022-11-23T12:05:15;11.35;;;2.83;;
30605;SDS011;17371;51.328;3.860;2022-11-23T12:07:45;7.93;;;2.70;;
30605;SDS011;17371;51.328;3.860;2022-11-23T12:10:18;9.95;;;2.10;;
30605;SDS011;17371;51.328;3.860;2022-11-23T12:12:45;10.73;;;2.30;;
30605;SDS011;17371;51.328;3.860;2022-11-23T12:15:15;4.97;;;1.80;;
30605;SDS011;17371;51.328;3.860;2022-11-23T12:17:46;9.70;;;2.23;;
30605;SDS011;17371;51.328;3.860;2022-11-23T12:20:22;7.70;;;2.42;;
30605;SDS011;17371;51.328;3.860;2022-11-23T12:22:54;6.25;;;2.17;;
30605;SDS011;17371;51.328;3.860;2022-11-23T12:25:29;10.35;;;2.10;;
30605;SDS011;17371;51.328;3.860;2022-11-23T12:27:58;12.60;;;2.20;;
30605;SDS011;17371;51.328;3.860;2022-11-23T12:30:28;8.67;;;2.63;;
30605;SDS011;17371;51.328;3.860;2022-11-23T12:35:52;18.58;;;4.25;;
30605;SDS011;17371;51.328;3.860;2022-11-23T12:38:28;14.93;;;4.43;;
30605;SDS011;17371;51.328;3.860;2022-11-23T12:40:58;10.18;;;3.60;;
30605;SDS011;17371;51.328;3.860;2022-11-23T12:43:31;13.73;;;3.33;;
30605;SDS011;17371;51.328;3.860;2022-11-23T12:46:09;11.77;;;3.22;;
30605;SDS011;17371;51.328;3.860;2022-11-23T12:48:48;14.98;;;4.00;;
30605;SDS011;17371;51.328;3.860;2022-11-23T12:51:21;8.43;;;2.53;;
30605;SDS011;17371;51.328;3.860;2022-11-23T12:53:53;6.30;;;2.47;;
30605;SDS011;17371;51.328;3.860;2022-11-23T12:56:32;8.73;;;2.80;;
30605;SDS011;17371;51.328;3.860;2022-11-23T12:59:08;7.05;;;2.35;;
30605;SDS011;17371;51.328;3.860;2022-11-23T13:01:35;10.23;;;2.60;;
30605;SDS011;17371;51.328;3.860;2022-11-23T13:04:15;10.35;;;2.70;;
30605;SDS011;17371;51.328;3.860;2022-11-23T13:07:06;9.18;;;2.72;;
30605;SDS011;17371;51.328;3.860;2022-11-23T13:09:54;40.37;;;9.10;;
30605;SDS011;17371;51.328;3.860;2022-11-23T13:12:35;38.28;;;9.20;;
30605;SDS011;17371;51.328;3.860;2022-11-23T13:15:24;41.72;;;9.55;;
30605;SDS011;17371;51.328;3.860;2022-11-23T13:17:59;34.78;;;8.93;;
30605;SDS011;17371;51.328;3.860;2022-11-23T13:20:35;20.92;;;5.57;;
30605;SDS011;17371;51.328;3.860;2022-11-23T13:23:06;9.47;;;3.53;;
30605;SDS011;17371;51.328;3.860;2022-11-23T13:25:31;20.30;;;4.57;;
30605;SDS011;17371;51.328;3.860;2022-11-23T13:27:59;11.30;;;3.60;;
30605;SDS011;17371;51.328;3.860;2022-11-23T13:30:30;10.68;;;3.03;;
30605;SDS011;17371;51.328;3.860;2022-11-23T13:32:57;8.85;;;2.72;;
30605;SDS011;17371;51.328;3.860;2022-11-23T13:38:34;6.78;;;2.70;;
30605;SDS011;17371;51.328;3.860;2022-11-23T13:44:16;8.80;;;3.25;;
30605;SDS011;17371;51.328;3.860;2022-11-23T13:46:44;17.05;;;4.93;;
30605;SDS011;17371;51.328;3.860;2022-11-23T13:49:27;21.67;;;5.15;;
30605;SDS011;17371;51.328;3.860;2022-11-23T13:52:03;33.67;;;8.48;;
30605;SDS011;17371;51.328;3.860;2022-11-23T13:54:29;45.70;;;10.73;;
30605;SDS011;17371;51.328;3.860;2022-11-23T13:56:55;50.00;;;12.68;;
30605;SDS011;17371;51.328;3.860;2022-11-23T13:59:27;39.27;;;12.13;;
30605;SDS011;17371;51.328;3.860;2022-11-23T14:02:02;42.95;;;11.48;;
30605;SDS011;17371;51.328;3.860;2022-11-23T14:04:47;53.20;;;14.18;;
30605;SDS011;17371;51.328;3.860;2022-11-23T14:07:14;39.30;;;12.57;;
30605;SDS011;17371;51.328;3.860;2022-11-23T14:09:42;53.60;;;15.25;;
30605;SDS011;17371;51.328;3.860;2022-11-23T14:12:14;35.35;;;10.55;;
30605;SDS011;17371;51.328;3.860;2022-11-23T14:14:54;37.63;;;11.38;;
30605;SDS011;17371;51.328;3.860;2022-11-23T14:17:33;47.93;;;14.57;;
30605;SDS011;17371;51.328;3.860;2022-11-23T14:20:13;37.15;;;11.80;;
30605;SDS011;17371;51.328;3.860;2022-11-23T14:22:46;46.63;;;14.00;;
30605;SDS011;17371;51.328;3.860;2022-11-23T14:25:33;38.28;;;13.63;;
30605;SDS011;17371;51.328;3.860;2022-11-23T14:28:10;36.40;;;11.57;;
30605;SDS011;17371;51.328;3.860;2022-11-23T14:30:48;22.97;;;9.77;;
30605;SDS011;17371;51.328;3.860;2022-11-23T14:33:25;20.40;;;8.68;;
30605;SDS011;17371;51.328;3.860;2022-11-23T14:35:56;22.55;;;8.82;;
30605;SDS011;17371;51.328;3.860;2022-11-23T14:38:41;17.50;;;8.52;;
30605;SDS011;17371;51.328;3.860;2022-11-23T14:41:26;15.02;;;7.70;;
30605;SDS011;17371;51.328;3.860;2022-11-23T14:43:52;12.67;;;6.70;;
30605;SDS011;17371;51.328;3.860;2022-11-23T14:46:20;9.68;;;5.97;;
30605;SDS011;17371;51.328;3.860;2022-11-23T14:48:46;12.20;;;6.40;;